| |
Missouri Department of Transportation

Social Media Facebook Twitter Flickr Instagram YouTube RSS

Current AWOS Information

 
AWOS Home - General Info for all Airports
Current AWOS for all Airports - Current METAR for all Airports
Glossary - Disclaimer - Other Links


HANNIBAL--HANNIBAL REGIONAL--KHAE
 
Recent AWOS History
 
08/04/15     08:47 AM CDT      13:47 GMT
Air Temperature 69°F (21°C ) 1st Cloud Layer Scattered at 12,000 feet
Dew Point 64°F (18°C) 2nd Cloud Layer  
Barometric Pressure 29.99 in Hg. 3rd Cloud Layer  
Wind Speed 0 mph (0 knots) Density Altitude  
Peak Wind Gusts   Variable Wind Directions  
Wind Direction   Variable Visibility  
Visibility 10 statute miles  

Thunderstorm and Precipitation Identification: 
Thunderstorm Remarks: 

Current METAR Record: METAR KHAE 041347Z AUTO 00000KT 10SM SCT120 20/18 A2999 RMK AO2 P0001

 

 

 

About Us
How Do I...
Contact Us
Missouri Department of Transportation
Central Office
105 W. Capitol Avenue
Jefferson City, MO 65102
1-888-ASK-MODOT (275-6636)
1-866-831-6277 (Motor Carrier Services)
Driver's License Offices
horz_bar
| | |
Missouri State Government
© 2013 Missouri Department of Transportation. All Rights Reserved.   Privacy Policy.
 
 
 
 
RSS FeedYoutubeBlogFlickrTwitter Facebook